createdAt,value
2019-01-11T16:13:15.733Z,0.48
2019-01-11T16:30:08.382Z,0.40
2019-01-11T16:32:41.244Z,0.36
2019-01-11T16:35:32.471Z,0.26
2019-01-11T16:38:12.877Z,0.28
2019-01-11T16:44:14.982Z,0.47
2019-01-11T16:47:14.841Z,0.52
2019-01-11T16:49:51.820Z,0.42
2019-01-11T16:52:29.919Z,0.36
2019-01-11T16:55:17.805Z,0.49
2019-01-11T16:57:50.230Z,0.43
2019-01-11T17:00:21.784Z,0.39
2019-01-11T17:02:53.151Z,0.42
2019-01-11T17:05:24.618Z,0.43
2019-01-11T17:07:56.825Z,0.51
2019-01-11T17:10:27.463Z,0.42
2019-01-11T17:12:59.252Z,0.45
2019-01-11T17:16:18.270Z,0.34
2019-01-11T17:18:53.205Z,0.48
2019-01-11T17:23:57.546Z,0.41
2019-01-11T17:26:30.800Z,0.38
2019-01-11T17:29:04.172Z,0.41
2019-01-11T17:31:38.841Z,0.40
2019-01-11T17:34:09.828Z,0.41
2019-01-11T17:36:39.395Z,0.33
2019-01-11T17:39:10.529Z,0.39
2019-01-11T17:41:40.366Z,0.48
2019-01-11T17:44:18.665Z,0.73
2019-01-11T17:46:57.994Z,0.72
2019-01-11T17:49:32.983Z,0.81
2019-01-11T17:52:34.030Z,0.84
2019-01-11T17:55:22.064Z,1.02
2019-01-11T18:01:38.500Z,0.67
2019-01-11T18:07:01.316Z,0.63
2019-01-11T18:09:40.186Z,0.71
2019-01-11T18:12:11.769Z,0.82
2019-01-11T18:14:43.448Z,0.49
2019-01-11T18:17:18.633Z,0.46
2019-01-11T18:22:49.492Z,0.17
2019-01-11T20:30:11.345Z,0.29
2019-01-11T21:13:38.949Z,0.23
2019-01-11T21:16:19.334Z,0.29
2019-01-11T21:19:27.578Z,0.21
2019-01-11T21:25:06.622Z,0.26
2019-01-11T21:27:52.441Z,0.20
2019-01-11T21:31:22.428Z,0.22
2019-01-11T21:37:46.720Z,0.27
2019-01-11T21:40:34.168Z,0.20
2019-01-11T21:43:32.364Z,0.22
2019-01-11T21:46:23.782Z,0.06
2019-01-11T21:49:01.151Z,0.18
2019-01-11T21:51:36.627Z,0.15
2019-01-11T21:54:08.084Z,0.13
2019-01-11T21:56:40.662Z,0.17
2019-01-11T21:59:37.995Z,0.25
2019-01-11T22:02:09.426Z,0.18
2019-01-11T22:05:02.579Z,0.28
2019-01-11T22:07:51.304Z,0.18
2019-01-11T22:10:27.416Z,0.12
2019-01-11T22:16:34.958Z,0.31
2019-01-11T22:19:11.215Z,0.20
2019-01-11T22:24:57.504Z,0.25
2019-01-11T22:27:31.412Z,0.27
2019-01-11T22:33:08.309Z,0.14
2019-01-11T22:35:46.463Z,0.17
2019-01-11T22:38:42.140Z,0.18
2019-01-11T22:41:34.143Z,0.19
2019-01-11T22:44:19.156Z,0.09
2019-01-11T22:47:16.699Z,0.05
2019-01-11T22:50:01.646Z,0.08
2019-01-11T22:53:11.905Z,-0.01
2019-01-11T22:56:05.463Z,0.04
2019-01-11T22:59:14.774Z,0.19
2019-01-11T23:04:35.346Z,0.14
2019-01-11T23:07:28.350Z,0.09
2019-01-11T23:10:01.882Z,0.19
2019-01-11T23:12:44.344Z,0.29
2019-01-11T23:15:35.522Z,0.16
2019-01-11T23:18:24.677Z,0.15
2019-01-11T23:21:08.647Z,0.21
2019-01-11T23:24:03.210Z,0.26
2019-01-11T23:27:00.569Z,0.27
2019-01-11T23:32:52.463Z,0.26
2019-01-11T23:35:27.725Z,0.21
2019-01-11T23:38:14.583Z,0.28
2019-01-11T23:43:55.242Z,0.14
2019-01-11T23:53:05.053Z,0.21
2019-01-11T23:59:23.930Z,0.08
